Airport ICAO


14:03 UTC

17°C

Rain


An affordable passengers' Moving Map for your aircraft. Made for the iPad and the iPhone
More information here

LFPN Le Noble


Toussous FRANCE   IFR CB CAT I


METAR LFPN 231330Z AUTO 30020KT 270V330 4700 R25R/1400U RA BR SCT011/// BKN017/// BKN023/// ///CB 17/15 Q1014 BECMG 32010G20KT 9999 NSW BKN020 0h33min

TAF LFPN 231100Z 2312/2321 23020G30KT 9999 BKN012 TEMPO 2312/2315 25025G40KT 2500 RA BKN006 SCT015CB BECMG 2315/2318 32010G20KT BKN020 3h03min





NOTAMS

OPEN